Aeroporto :
LOGIN :

Iscrizione | Disclaimer

   EN    FR    IT 

 










Sommario :    VFR   VFR Marginale   IFR   IFR Intensivo   IFR Molto Intensivo
Visibilità : 
Base nubi : 
>= 8 km
>= 3000ft
5 / 8 km
1000 / 3000 ft
1500m / 5 km
500 / 1000 ft
800 / 1500m
200 / 500 ft
< 800m
< 200 ft
Simboli :   Temporali  Nebbia  Neve Forte  Precipitazioni Forti  Vento > 20 kt
SIGMETs :   Varie  Temporali  Ghiacco  Turbolenza  Onda orograficha  Ceneri Vulcaniche






- Altitudine del aeroporto : 268 ft
- Codice IATA : BFS


EGAA - Belfast Aldergrove

ULTIMO METAR :
  • 242120Z 33008KT 9999 SCT026 07/05 Q1002

METARs OBSOLETI :
  • 242020Z 35007KT CAVOK 07/05 Q1001
  • 241950Z 06005KT 9999 FEW030 SCT036 BKN045 08/05 Q1000 RERA
  • 241920Z 01012KT 9999 -RA SCT024 BKN029 08/05 Q1000

TAF AMD TAF EGAA
Valido dal 24 a 19 ore il 25 a 18 ore UTC


241903Z 2419/2518 03008KT 9999 FEW010 SCT025
TEMPO 2419/2422 6000 SHRA
PROB40
TEMPO 2419/2421 2000 +SHRA
BECMG 2507/2510 33012KT
PROB40
TEMPO 2509/2516 34015G25KT 6000 SHRA



MetMap, La meteo Aeronautica in un colpo d'occhio ! - Copyright ORBIFLY Dicembre 2007 - Disclaimer

ORBIFLY MET'MAP TEAM :

Programmazione e sviluppo : Alexandra Zaïnal
Concezione : Baudouin d'Aumeries
Aiuto per la programmazione : Marc-Olivier Méhu
Supporto tecnico e logistico : Manuel Goepfert
Aiuto per la traduzione : Arnaldo La Scala

Contatto : metmap@orbifly.com




FONTI E CREDITI :

   NOAA